Time;durP1;ratioP1;P1;durP2;ratioP2;P2;SDS_P1;SDS_P2;PMS_P1;PMS_P2;Temp;Humidity;BMP_temperature;BMP_pressure;BME280_temperature;BME280_humidity;BME280_pressure;Samples;Min_cycle;Max_cycle;Signal;HPM_P1;HPM_P2
2021/12/04 00:01:06;;;;;;;;;5.00;3.50;;;;;10.64;100.00;99496.38;5054006;28;46977;-64
2021/12/04 00:03:31;;;;;;;;;4.00;2.25;;;;;10.67;100.00;99485.81;5055977;28;45747;-64
2021/12/04 00:06:02;;;;;;;;;1.25;1.25;;;;;10.72;100.00;99483.00;5050862;28;45595;-66
2021/12/04 00:08:28;;;;;;;;;1.00;0.00;;;;;10.75;100.00;99464.66;5053375;28;46154;-64
2021/12/04 00:10:53;;;;;;;;;1.00;1.00;;;;;10.81;100.00;99466.94;5050608;28;45960;-66
2021/12/04 00:13:19;;;;;;;;;1.00;1.00;;;;;10.85;100.00;99464.16;5053911;28;45430;-66
2021/12/04 00:15:44;;;;;;;;;2.00;0.00;;;;;10.89;100.00;99460.47;5056408;28;45768;-66
2021/12/04 00:18:10;;;;;;;;;0.50;0.50;;;;;10.91;100.00;99452.59;5057607;28;45492;-64
2021/12/04 00:20:36;;;;;;;;;1.00;0.25;;;;;10.94;100.00;99436.84;5057405;28;45372;-66
2021/12/04 00:23:01;;;;;;;;;0.00;0.00;;;;;10.97;100.00;99447.09;5057860;28;45304;-66
2021/12/04 00:25:28;;;;;;;;;4.25;3.00;;;;;11.02;100.00;99442.53;5058474;28;45343;-65
2021/12/04 00:27:54;;;;;;;;;9.50;6.25;;;;;11.07;100.00;99443.13;5059974;28;46049;-66
2021/12/04 00:30:19;;;;;;;;;25.75;18.00;;;;;11.09;100.00;99436.09;5059787;28;45181;-65
2021/12/04 00:32:54;;;;;;;;;2.25;1.25;;;;;11.08;100.00;99437.00;5060081;28;45266;-65
2021/12/04 00:35:33;;;;;;;;;0.00;0.00;;;;;11.15;100.00;99438.38;5058555;28;45275;-65
2021/12/04 00:51:40;;;;;;;;;1.00;1.00;;;;;11.43;100.00;99419.63;5058869;28;45459;-63
2021/12/04 00:54:09;;;;;;;;;0.00;0.00;;;;;11.50;100.00;99415.75;5059099;28;45353;-65
2021/12/04 00:56:35;;;;;;;;;0.00;0.00;;;;;11.54;100.00;99411.22;5059533;28;45342;-64
2021/12/04 00:59:01;;;;;;;;;0.00;0.00;;;;;11.59;100.00;99409.22;5058887;28;45395;-66
2021/12/04 01:01:27;;;;;;;;;0.00;0.00;;;;;11.67;100.00;99412.28;5059610;28;45334;-66
2021/12/04 01:03:52;;;;;;;;;0.00;0.00;;;;;11.73;100.00;99411.94;5059335;28;45217;-67
2021/12/04 01:06:18;;;;;;;;;0.00;0.00;;;;;11.78;100.00;99412.56;5059461;28;45475;-64
2021/12/04 01:08:43;;;;;;;;;2.00;0.00;;;;;11.78;100.00;99415.16;5059395;28;45279;-65
2021/12/04 01:11:08;;;;;;;;;0.00;0.00;;;;;11.88;100.00;99411.16;5059509;28;45359;-64
2021/12/04 01:13:34;;;;;;;;;0.00;0.00;;;;;11.86;100.00;99399.16;5059328;28;45386;-65
2021/12/04 01:16:00;;;;;;;;;0.00;0.00;;;;;11.96;100.00;99404.69;5059518;28;45520;-64
2021/12/04 01:18:26;;;;;;;;;0.00;0.00;;;;;11.98;100.00;99408.88;5059117;28;46043;-65
2021/12/04 01:20:51;;;;;;;;;0.00;0.00;;;;;11.98;100.00;99416.69;5060931;28;45370;-65
2021/12/04 01:23:17;;;;;;;;;0.50;0.00;;;;;11.98;100.00;99408.03;5062692;28;45341;-63
2021/12/04 01:25:43;;;;;;;;;0.00;0.00;;;;;11.98;100.00;99408.88;5062842;28;45274;-63
2021/12/04 01:28:09;;;;;;;;;1.00;0.00;;;;;11.99;100.00;99418.38;5062444;28;45309;-62
2021/12/04 01:30:35;;;;;;;;;0.00;0.00;;;;;12.01;100.00;99413.91;5063022;28;45334;-66
2021/12/04 01:33:01;;;;;;;;;0.00;0.00;;;;;12.01;100.00;99419.13;5062740;28;45326;-63
2021/12/04 01:35:26;;;;;;;;;0.00;0.00;;;;;12.05;100.00;99419.81;5062493;28;45568;-62
2021/12/04 01:37:52;;;;;;;;;0.00;0.00;;;;;12.06;100.00;99424.94;5062313;28;45413;-62
2021/12/04 01:40:18;;;;;;;;;0.00;0.00;;;;;12.06;100.00;99429.31;5061968;28;45298;-62
2021/12/04 01:42:45;;;;;;;;;0.00;0.00;;;;;12.02;100.00;99417.41;5062634;28;45302;-63
2021/12/04 01:45:11;;;;;;;;;0.00;0.00;;;;;11.99;100.00;99417.53;5062707;28;45501;-64
2021/12/04 01:47:37;;;;;;;;;0.00;0.00;;;;;11.98;100.00;99431.47;5062365;28;45414;-64
2021/12/04 01:50:04;;;;;;;;;0.00;0.00;;;;;12.01;100.00;99418.28;5059358;28;45353;-64
2021/12/04 01:52:29;;;;;;;;;0.00;0.00;;;;;11.97;100.00;99419.38;5061515;28;45473;-66
2021/12/04 01:54:57;;;;;;;;;0.00;0.00;;;;;12.01;100.00;99420.88;5062248;28;45456;-66
2021/12/04 01:57:23;;;;;;;;;0.00;0.00;;;;;11.99;100.00;99420.13;5062151;28;45261;-66
2021/12/04 01:59:49;;;;;;;;;0.00;0.00;;;;;12.02;100.00;99422.59;5062226;28;45276;-66
2021/12/04 02:02:15;;;;;;;;;0.00;0.00;;;;;12.05;100.00;99422.44;5062330;28;45537;-64
2021/12/04 02:04:40;;;;;;;;;0.00;0.00;;;;;12.05;100.00;99431.09;5062148;28;45627;-64
2021/12/04 02:07:08;;;;;;;;;0.00;0.00;;;;;12.06;100.00;99435.38;5061745;28;45311;-64
2021/12/04 02:09:34;;;;;;;;;0.00;0.00;;;;;12.06;100.00;99429.31;5062010;28;45541;-65
2021/12/04 02:12:03;;;;;;;;;0.00;0.00;;;;;12.11;100.00;99427.28;5062162;28;45286;-65
2021/12/04 02:14:29;;;;;;;;;0.00;0.00;;;;;12.13;100.00;99434.09;5062104;28;45216;-65
2021/12/04 02:16:55;;;;;;;;;0.00;0.00;;;;;12.11;100.00;99424.69;5061874;28;46036;-65
2021/12/04 02:19:20;;;;;;;;;0.00;0.00;;;;;12.08;100.00;99425.69;5061929;28;45259;-65
2021/12/04 02:21:46;;;;;;;;;0.00;0.00;;;;;12.18;100.00;99433.84;5061722;28;45478;-65
2021/12/04 02:24:11;;;;;;;;;0.00;0.00;;;;;12.19;100.00;99435.50;5061928;28;45412;-65
2021/12/04 02:26:36;;;;;;;;;0.00;0.00;;;;;12.23;100.00;99444.03;5061429;28;46012;-66
2021/12/04 02:29:02;;;;;;;;;0.00;0.00;;;;;12.22;100.00;99434.53;5061955;28;45307;-66
2021/12/04 02:31:28;;;;;;;;;0.00;0.00;;;;;12.24;100.00;99438.72;5061397;28;45465;-65
2021/12/04 02:33:53;;;;;;;;;0.00;0.00;;;;;12.23;100.00;99434.44;5061920;28;45348;-65
2021/12/04 02:36:19;;;;;;;;;0.00;0.00;;;;;12.27;100.00;99438.56;5061335;28;45280;-65
2021/12/04 02:38:50;;;;;;;;;0.00;0.00;;;;;12.29;100.00;99435.88;5061475;28;45698;-65
2021/12/04 02:41:15;;;;;;;;;0.00;0.00;;;;;12.31;100.00;99440.06;5061532;28;45367;-65
2021/12/04 02:43:41;;;;;;;;;0.00;0.00;;;;;12.30;100.00;99433.16;5061655;28;45460;-65
2021/12/04 02:46:06;;;;;;;;;0.00;0.00;;;;;12.32;100.00;99441.75;5061333;28;45314;-65
2021/12/04 02:48:32;;;;;;;;;0.00;0.00;;;;;12.33;100.00;99438.22;5061632;28;45437;-66
2021/12/04 02:50:57;;;;;;;;;0.00;0.00;;;;;12.35;100.00;99441.56;5058721;28;45487;-64
2021/12/04 02:53:22;;;;;;;;;0.00;0.00;;;;;12.36;100.00;99442.41;5060461;28;45381;-64
2021/12/04 02:55:50;;;;;;;;;0.00;0.00;;;;;12.38;100.00;99438.78;5060778;28;46147;-64
2021/12/04 02:58:16;;;;;;;;;2.00;0.00;;;;;12.39;100.00;99437.03;5061181;28;45359;-64
2021/12/04 03:00:47;;;;;;;;;0.00;0.00;;;;;12.43;100.00;99434.19;5061296;28;45382;-64
2021/12/04 03:03:13;;;;;;;;;0.00;0.00;;;;;12.44;100.00;99442.84;5061412;28;45460;-64
2021/12/04 03:05:39;;;;;;;;;0.00;0.00;;;;;12.46;100.00;99440.97;5060507;28;46467;-65
2021/12/04 03:08:06;;;;;;;;;0.00;0.00;;;;;12.47;100.00;99447.88;5061287;28;45363;-65
2021/12/04 03:10:32;;;;;;;;;0.00;0.00;;;;;12.42;100.00;99448.13;5060933;28;45311;-63
2021/12/04 03:12:58;;;;;;;;;0.00;0.00;;;;;12.43;100.00;99436.78;5061142;28;45465;-63
2021/12/04 03:15:23;;;;;;;;;0.00;0.00;;;;;12.48;100.00;99449.56;5060774;28;46249;-63
2021/12/04 03:17:50;;;;;;;;;0.00;0.00;;;;;12.48;100.00;99436.53;5060956;28;45219;-64
2021/12/04 03:20:16;;;;;;;;;0.25;0.25;;;;;12.47;100.00;99440.91;5060901;28;45232;-63
2021/12/04 03:22:44;;;;;;;;;0.00;0.00;;;;;12.46;100.00;99439.22;5061002;28;45311;-63
2021/12/04 03:25:10;;;;;;;;;0.00;0.00;;;;;12.46;100.00;99443.59;5060500;28;46570;-63
2021/12/04 03:27:35;;;;;;;;;0.00;0.00;;;;;12.47;100.00;99446.09;5061008;28;45485;-63
2021/12/04 03:30:06;;;;;;;;;1.00;0.00;;;;;12.49;100.00;99444.25;5060656;28;45320;-63
2021/12/04 03:40:35;;;;;;;;;1.00;0.00;;;;;12.46;100.00;99454.00;5060672;28;45517;-63
2021/12/04 03:43:05;;;;;;;;;0.00;0.00;;;;;12.44;100.00;99437.63;5058872;28;45224;-63
2021/12/04 03:45:32;;;;;;;;;1.00;0.00;;;;;12.46;100.00;99439.22;5058134;28;48376;-63
2021/12/04 03:48:06;;;;;;;;;0.00;0.00;;;;;12.50;100.00;99442.47;5057973;28;45699;-63
2021/12/04 03:50:31;;;;;;;;;0.00;0.00;;;;;12.48;100.00;99432.16;5047408;28;45524;-63
2021/12/04 03:52:57;;;;;;;;;0.00;0.00;;;;;12.49;100.00;99428.63;5055219;28;45673;-64
2021/12/04 03:55:25;;;;;;;;;0.00;0.00;;;;;12.47;100.00;99432.25;5056617;28;46087;-64
2021/12/04 03:57:50;;;;;;;;;0.00;0.00;;;;;12.48;100.00;99436.53;5058004;28;45383;-64
2021/12/04 04:00:18;;;;;;;;;0.00;0.00;;;;;12.47;100.00;99440.06;5058278;28;45431;-63
2021/12/04 04:02:43;;;;;;;;;0.00;0.00;;;;;12.48;100.00;99436.53;5060183;28;45327;-63
2021/12/04 04:05:09;;;;;;;;;0.00;0.00;;;;;12.51;100.00;99435.50;5057447;28;45524;-63
2021/12/04 04:07:34;;;;;;;;;1.25;0.00;;;;;12.54;100.00;99437.94;5057712;28;45461;-63
2021/12/04 04:10:00;;;;;;;;;0.00;0.00;;;;;12.55;100.00;99443.06;5058039;28;45521;-64
2021/12/04 04:12:25;;;;;;;;;0.00;0.00;;;;;12.54;100.00;99430.13;5057673;28;45664;-63
2021/12/04 04:14:50;;;;;;;;;1.50;0.00;;;;;12.55;100.00;99442.22;5057829;28;45623;-63
2021/12/04 04:17:16;;;;;;;;;0.25;0.00;;;;;12.57;100.00;99442.97;5057607;28;45380;-64
2021/12/04 04:19:41;;;;;;;;;2.00;0.00;;;;;12.55;100.00;99444.81;5059691;28;45340;-64
2021/12/04 04:22:07;;;;;;;;;0.25;0.00;;;;;12.57;100.00;99440.38;5059572;28;45424;-64
2021/12/04 04:24:33;;;;;;;;;0.00;0.00;;;;;12.54;100.00;99441.38;5060084;28;45181;-64
2021/12/04 04:26:59;;;;;;;;;0.00;0.00;;;;;12.56;100.00;99446.50;5059320;28;45448;-63
2021/12/04 04:29:25;;;;;;;;;0.00;0.00;;;;;12.55;100.00;99437.84;5059394;28;45551;-63
2021/12/04 04:31:53;;;;;;;;;2.00;0.00;;;;;12.55;100.00;99437.00;5059563;28;45567;-63
2021/12/04 04:34:35;;;;;;;;;0.00;0.00;;;;;12.54;100.00;99444.00;5059477;28;46214;-64
2021/12/04 05:01:52;;;;;;;;;0.00;0.00;;;;;12.49;100.00;99427.78;5062958;28;45420;-63
2021/12/04 05:12:28;;;;;;;;;2.00;2.00;;;;;12.46;100.00;99422.75;5063057;28;45168;-64
2021/12/04 05:14:57;;;;;;;;;0.00;0.00;;;;;12.46;100.00;99422.75;5063022;28;45442;-64
2021/12/04 05:17:41;;;;;;;;;1.75;0.75;;;;;12.47;100.00;99427.88;5062719;28;46076;-64
2021/12/04 05:20:07;;;;;;;;;0.00;0.00;;;;;12.46;100.00;99420.13;5062046;28;45457;-64
2021/12/04 05:22:32;;;;;;;;;1.25;0.00;;;;;12.47;100.00;99419.22;5062712;28;45436;-64
2021/12/04 05:24:58;;;;;;;;;0.00;0.00;;;;;12.45;100.00;99424.50;5060935;28;45237;-64
2021/12/04 05:27:23;;;;;;;;;0.00;0.00;;;;;12.46;100.00;99422.75;5062750;28;45547;-63
2021/12/04 05:29:48;;;;;;;;;0.00;0.00;;;;;12.47;100.00;99421.81;5062533;28;45823;-64
2021/12/04 05:32:16;;;;;;;;;0.00;0.00;;;;;12.49;100.00;99422.56;5062931;28;45426;-63
2021/12/04 05:34:41;;;;;;;;;0.00;0.00;;;;;12.51;100.00;99419.88;5062536;28;45445;-63
2021/12/04 05:37:07;;;;;;;;;0.00;0.00;;;;;12.49;100.00;99420.81;5061820;28;46251;-64
2021/12/04 05:39:32;;;;;;;;;0.00;0.00;;;;;12.49;100.00;99418.19;5060520;28;45291;-63
2021/12/04 05:41:59;;;;;;;;;1.00;0.00;;;;;12.49;100.00;99420.81;5062904;28;45549;-64
2021/12/04 05:44:26;;;;;;;;;0.00;0.00;;;;;12.47;100.00;99409.63;5062266;28;45485;-64
2021/12/04 05:49:30;;;;;;;;;0.25;0.00;;;;;12.50;100.00;99421.63;5062233;28;45303;-64
2021/12/04 05:56:59;;;;;;;;;0.00;0.00;;;;;12.48;100.00;99428.72;5062430;28;45338;-63
2021/12/04 05:59:25;;;;;;;;;0.00;0.00;;;;;12.48;100.00;99439.97;5059483;28;45465;-63
2021/12/04 06:01:51;;;;;;;;;0.50;0.00;;;;;12.47;100.00;99425.25;5062433;28;45299;-63
2021/12/04 06:04:16;;;;;;;;;0.00;0.00;;;;;12.43;100.00;99430.72;5061653;28;45222;-63
2021/12/04 06:06:44;;;;;;;;;1.75;0.00;;;;;12.42;100.00;99418.63;5061205;28;45280;-63
2021/12/04 06:09:10;;;;;;;;;0.00;0.00;;;;;12.43;100.00;99415.94;5060552;28;45449;-63
2021/12/04 06:11:35;;;;;;;;;1.00;0.00;;;;;12.43;100.00;99423.75;5062317;28;45224;-65
2021/12/04 06:14:02;;;;;;;;;0.00;0.00;;;;;12.41;100.00;99425.63;5061789;28;45496;-65
2021/12/04 06:16:27;;;;;;;;;1.00;0.00;;;;;12.35;100.00;99415.50;5061893;28;45572;-66
2021/12/04 06:18:54;;;;;;;;;0.00;0.00;;;;;12.36;100.00;99416.34;5061804;28;45432;-66
2021/12/04 06:24:06;;;;;;;;;0.00;0.00;;;;;12.35;100.00;99405.09;5061993;28;45363;-65
2021/12/04 06:26:33;;;;;;;;;0.00;0.00;;;;;12.32;100.00;99405.25;5061568;28;45433;-65
2021/12/04 06:28:58;;;;;;;;;1.00;0.00;;;;;12.31;100.00;99414.00;5061896;28;45228;-65
2021/12/04 06:31:25;;;;;;;;;0.50;0.00;;;;;12.28;100.00;99401.16;5060390;28;45277;-65
2021/12/04 06:33:50;;;;;;;;;0.00;0.00;;;;;12.27;100.00;99396.88;5061682;28;45499;-65
2021/12/04 06:36:16;;;;;;;;;0.00;0.00;;;;;12.22;100.00;99391.09;5061402;28;45408;-63
2021/12/04 06:38:42;;;;;;;;;0.00;0.00;;;;;12.23;100.00;99394.53;5061136;28;45458;-63
2021/12/04 06:41:08;;;;;;;;;0.00;0.00;;;;;12.21;100.00;99392.00;5060564;28;45335;-63
2021/12/04 06:43:35;;;;;;;;;0.00;0.00;;;;;12.18;100.00;99389.56;5046007;28;45363;-63
2021/12/04 06:46:02;;;;;;;;;0.00;0.00;;;;;12.16;100.00;99392.25;5043198;28;46259;-64
2021/12/04 06:48:42;;;;;;;;;0.00;0.00;;;;;12.13;100.00;99388.97;5049710;28;45473;-64
2021/12/04 06:51:23;;;;;;;;;0.00;0.00;;;;;12.14;100.00;99391.50;5023412;28;45318;-64
2021/12/04 06:56:18;;;;;;;;;0.00;0.00;;;;;12.14;100.00;99390.66;5043564;28;46073;-67
2021/12/04 06:58:44;;;;;;;;;0.00;0.00;;;;;12.13;100.00;99394.19;5037682;28;45420;-62
2021/12/04 07:01:13;;;;;;;;;0.00;0.00;;;;;12.15;100.00;99392.34;5052502;28;45327;-63
2021/12/04 07:03:39;;;;;;;;;0.00;0.00;;;;;12.16;100.00;99384.44;5052219;28;45494;-63
2021/12/04 07:06:06;;;;;;;;;0.00;0.00;;;;;12.19;100.00;99384.25;5038770;28;46069;-63
2021/12/04 07:08:31;;;;;;;;;0.00;0.00;;;;;12.23;100.00;99376.31;5039337;28;45417;-63
2021/12/04 07:10:57;;;;;;;;;0.00;0.00;;;;;12.23;100.00;99384.13;5044134;28;45400;-63
2021/12/04 07:13:22;;;;;;;;;0.00;0.00;;;;;12.22;100.00;99391.09;5042312;28;45213;-64
2021/12/04 07:15:48;;;;;;;;;0.75;0.00;;;;;12.17;100.00;99391.31;5050148;28;46187;-64
2021/12/04 07:18:14;;;;;;;;;0.00;0.00;;;;;12.18;100.00;99397.38;5040583;28;45417;-65
2021/12/04 07:20:39;;;;;;;;;2.00;0.00;;;;;12.22;100.00;99382.44;5048091;28;45322;-66
2021/12/04 07:23:05;;;;;;;;;0.00;0.00;;;;;12.24;100.00;99380.59;5057451;28;45335;-66
2021/12/04 07:25:31;;;;;;;;;2.75;1.25;;;;;12.21;100.00;99383.34;5059014;28;45405;-66
2021/12/04 07:27:56;;;;;;;;;1.50;0.50;;;;;12.14;100.00;99369.81;5060197;28;45455;-65
2021/12/04 07:30:23;;;;;;;;;1.00;0.00;;;;;12.13;100.00;99378.56;5059840;28;45523;-65
2021/12/04 07:32:49;;;;;;;;;0.00;0.00;;;;;12.04;100.00;99369.50;5059805;28;45178;-65
2021/12/04 07:35:15;;;;;;;;;0.00;0.00;;;;;12.06;100.00;99364.22;5059701;28;45391;-65
2021/12/04 07:37:41;;;;;;;;;1.00;1.00;;;;;12.05;100.00;99368.59;5059382;28;45215;-65
2021/12/04 07:40:07;;;;;;;;;0.00;0.00;;;;;12.04;100.00;99371.28;5039549;28;45461;-65
2021/12/04 07:42:33;;;;;;;;;1.00;1.00;;;;;11.99;100.00;99381.09;5041000;28;45316;-65
2021/12/04 07:44:59;;;;;;;;;0.50;0.50;;;;;11.99;100.00;99375.88;5035897;28;46176;-65
2021/12/04 07:47:25;;;;;;;;;0.00;0.00;;;;;11.99;100.00;99374.13;5035090;28;45405;-65
2021/12/04 07:49:50;;;;;;;;;0.00;0.00;;;;;11.95;100.00;99363.97;5047807;28;45549;-64
2021/12/04 07:52:16;;;;;;;;;0.00;0.00;;;;;11.90;100.00;99372.03;5044192;28;45465;-65
2021/12/04 07:54:42;;;;;;;;;0.00;0.00;;;;;11.87;100.00;99382.59;5045355;28;46278;-65
2021/12/04 07:57:07;;;;;;;;;2.75;0.00;;;;;11.87;100.00;99387.81;5056796;28;45760;-64
2021/12/04 07:59:33;;;;;;;;;0.50;0.50;;;;;11.86;100.00;99381.78;5058847;28;45166;-64
2021/12/04 08:01:58;;;;;;;;;0.00;0.00;;;;;11.88;100.00;99374.72;5041474;28;45453;-65
2021/12/04 08:04:25;;;;;;;;;0.00;0.00;;;;;11.92;100.00;99375.38;5051336;28;45264;-65
2021/12/04 08:06:52;;;;;;;;;0.00;0.00;;;;;11.92;100.00;99374.53;5059750;28;46415;-65
2021/12/04 08:09:17;;;;;;;;;0.75;0.75;;;;;11.91;100.00;99375.47;5058881;28;45458;-65
2021/12/04 08:11:42;;;;;;;;;0.00;0.00;;;;;11.91;100.00;99378.91;5059688;28;45477;-64
2021/12/04 08:14:08;;;;;;;;;0.00;0.00;;;;;11.95;100.00;99387.38;5058781;28;46005;-65
2021/12/04 08:16:34;;;;;;;;;2.00;0.00;;;;;11.98;100.00;99397.63;5059697;28;45348;-65
2021/12/04 08:18:59;;;;;;;;;1.00;0.00;;;;;11.98;100.00;99392.41;5059071;28;45394;-64
2021/12/04 08:21:24;;;;;;;;;1.00;0.00;;;;;11.96;100.00;99381.25;5055896;28;45417;-64
2021/12/04 08:23:50;;;;;;;;;0.00;0.00;;;;;12.00;100.00;99403.59;5058445;28;45357;-64
2021/12/04 08:26:16;;;;;;;;;0.00;0.00;;;;;11.99;100.00;99381.91;5059349;28;45286;-63
2021/12/04 08:28:41;;;;;;;;;0.00;0.00;;;;;11.97;100.00;99386.38;5058774;28;45390;-63
2021/12/04 08:31:07;;;;;;;;;0.00;0.00;;;;;11.98;100.00;99405.44;5059201;28;45198;-63
2021/12/04 08:33:33;;;;;;;;;0.00;0.00;;;;;12.04;100.00;99392.09;5058335;28;46300;-63
2021/12/04 08:36:00;;;;;;;;;0.00;0.00;;;;;12.06;100.00;99400.66;5059149;28;45296;-64
2021/12/04 08:38:26;;;;;;;;;0.00;0.00;;;;;12.11;100.00;99401.25;5058886;28;45323;-64
2021/12/04 08:40:52;;;;;;;;;0.00;0.00;;;;;12.14;100.00;99401.06;5058189;28;45487;-64
2021/12/04 08:43:18;;;;;;;;;1.00;0.00;;;;;12.17;100.00;99412.16;5040914;28;46595;-64
2021/12/04 08:45:44;;;;;;;;;0.00;0.00;;;;;12.14;100.00;99408.88;5058501;28;45325;-63
2021/12/04 08:48:10;;;;;;;;;0.00;0.00;;;;;12.14;100.00;99416.69;5059404;28;45379;-66
2021/12/04 08:50:36;;;;;;;;;0.00;0.00;;;;;12.13;100.00;99420.22;5037803;28;45514;-63
2021/12/04 08:53:03;;;;;;;;;1.00;0.00;;;;;12.17;100.00;99421.75;5044851;28;45278;-65
2021/12/04 08:55:30;;;;;;;;;0.00;0.00;;;;;12.21;100.00;99422.41;5050190;28;45597;-65
2021/12/04 08:57:56;;;;;;;;;0.00;0.00;;;;;12.16;100.00;99440.91;5057482;28;45570;-64
2021/12/04 09:00:31;;;;;;;;;0.00;0.00;;;;;12.09;100.00;99429.13;5058476;28;45483;-64
2021/12/04 09:02:57;;;;;;;;;0.75;0.00;;;;;12.11;100.00;99455.94;5058181;28;45745;-64
2021/12/04 09:05:23;;;;;;;;;0.00;0.00;;;;;12.09;96.11;99442.16;5056379;28;45670;-66
2021/12/04 09:07:50;;;;;;;;;0.00;0.00;;;;;12.12;98.64;99444.59;5058495;28;45319;-65
2021/12/04 09:10:17;;;;;;;;;1.75;1.75;;;;;12.07;97.15;99446.63;5038978;28;45474;-62
2021/12/04 09:12:43;;;;;;;;;0.75;0.50;;;;;12.02;98.21;99454.69;5027449;28;46426;-64
2021/12/04 09:15:16;;;;;;;;;1.00;0.00;;;;;11.96;94.15;99451.56;5057789;28;45244;-63
2021/12/04 09:17:41;;;;;;;;;0.75;0.75;;;;;12.04;95.09;99449.41;5059050;28;45550;-67
2021/12/04 09:20:08;;;;;;;;;0.75;0.75;;;;;12.10;95.13;99462.91;5057838;28;45640;-65
2021/12/04 09:22:36;;;;;;;;;0.00;0.00;;;;;12.07;94.33;99451.81;5054999;28;45402;-65
2021/12/04 09:25:09;;;;;;;;;1.00;1.00;;;;;12.16;93.98;99465.16;5057774;28;45249;-64
2021/12/04 09:27:48;;;;;;;;;0.00;0.00;;;;;12.19;98.74;99462.41;5059128;28;45267;-66
2021/12/04 10:21:25;;;;;;;;;0.00;0.00;;;;;11.67;84.51;99584.03;5061386;28;45416;-59
2021/12/04 10:34:43;;;;;;;;;0.00;0.00;;;;;11.62;85.60;99600.81;5060100;28;45281;-60
2021/12/04 10:37:14;;;;;;;;;0.50;0.00;;;;;11.55;81.28;99587.25;5061162;28;46178;-61
2021/12/04 10:39:41;;;;;;;;;0.00;0.00;;;;;11.54;86.21;99588.16;5059841;28;45342;-59
2021/12/04 10:42:13;;;;;;;;;1.00;1.00;;;;;11.58;83.84;99579.28;5061155;28;45193;-60
2021/12/04 10:44:51;;;;;;;;;1.00;0.00;;;;;11.68;85.35;99590.91;5048244;28;45523;-61
2021/12/04 10:47:22;;;;;;;;;1.25;1.00;;;;;11.85;84.32;99598.75;5041366;28;46349;-59
2021/12/04 10:50:01;;;;;;;;;1.00;0.50;;;;;11.90;81.12;99601.13;5042949;28;45391;-60
2021/12/04 10:55:18;;;;;;;;;4.25;1.00;;;;;11.79;81.38;99598.19;5038974;28;45214;-59
2021/12/04 11:00:36;;;;;;;;;0.50;0.00;;;;;11.78;85.31;99607.78;5060623;28;45292;-63
2021/12/04 11:28:18;;;;;;;;;0.25;0.25;;;;;11.27;86.88;99627.63;5060244;28;45418;-60
2021/12/04 11:39:05;;;;;;;;;1.50;1.00;;;;;10.60;94.54;99693.09;5059899;28;45386;-60
2021/12/04 11:46:41;;;;;;;;;0.00;0.00;;;;;9.35;100.00;99700.06;5049655;28;45321;-62
2021/12/04 11:49:19;;;;;;;;;1.25;0.00;;;;;8.77;100.00;99705.69;5059202;28;45269;-63
2021/12/04 11:52:07;;;;;;;;;2.00;0.00;;;;;8.39;100.00;99714.81;5034512;28;45481;-61
2021/12/04 11:54:48;;;;;;;;;0.50;0.50;;;;;8.13;100.00;99688.97;5039163;28;45315;-63
2021/12/04 11:57:17;;;;;;;;;1.00;1.00;;;;;8.05;100.00;99703.94;5035241;28;45449;-62
2021/12/04 11:59:47;;;;;;;;;1.00;1.00;;;;;8.05;100.00;99703.94;5041014;28;46253;-61
2021/12/04 12:02:20;;;;;;;;;1.00;1.00;;;;;8.13;100.00;99694.16;5051060;28;46544;-61
2021/12/04 12:04:52;;;;;;;;;3.00;0.00;;;;;8.26;100.00;99708.38;5038581;28;45731;-61
2021/12/04 12:07:25;;;;;;;;;1.75;1.75;;;;;8.37;100.00;99708.00;5059181;28;45377;-63
2021/12/04 12:10:10;;;;;;;;;1.75;1.00;;;;;8.47;100.00;99706.81;5059723;28;45232;-61
2021/12/04 12:12:39;;;;;;;;;1.25;1.00;;;;;8.56;100.00;99705.63;5058186;28;46211;-64
2021/12/04 12:15:31;;;;;;;;;2.25;1.50;;;;;8.72;100.00;99707.59;5059076;28;45332;-61
2021/12/04 12:18:19;;;;;;;;;3.00;2.75;;;;;8.89;100.00;99711.34;5050720;28;45256;-68
2021/12/04 12:21:04;;;;;;;;;3.00;3.00;;;;;9.03;100.00;99719.44;5059074;28;45450;-62
2021/12/04 12:23:32;;;;;;;;;0.50;0.25;;;;;9.14;100.00;99714.69;5037658;28;46839;-69
2021/12/04 12:37:19;;;;;;;;;3.00;2.75;;;;;9.29;99.83;99752.16;5035764;28;45241;-62
2021/12/04 12:39:58;;;;;;;;;5.50;3.25;;;;;9.37;100.00;99758.72;5044710;28;45482;-63
2021/12/04 12:42:32;;;;;;;;;2.25;2.00;;;;;9.43;96.18;99762.84;5049532;28;45518;-64
2021/12/04 12:45:25;;;;;;;;;3.00;3.00;;;;;9.46;95.89;99773.09;5037152;28;45502;-64
2021/12/04 12:48:02;;;;;;;;;2.00;2.00;;;;;9.52;98.65;99783.22;5037685;28;45607;-65
2021/12/04 12:50:39;;;;;;;;;7.00;5.50;;;;;9.60;100.00;99788.97;5036817;28;45309;-63
2021/12/04 12:53:15;;;;;;;;;6.00;4.25;;;;;9.62;98.90;99794.97;5039464;28;45439;-62
2021/12/04 12:55:42;;;;;;;;;2.00;2.00;;;;;9.66;100.00;99786.16;5040129;28;46017;-63
2021/12/04 12:58:13;;;;;;;;;2.75;2.50;;;;;9.66;97.56;99795.69;5042124;28;45703;-64
2021/12/04 13:11:53;;;;;;;;;3.75;3.00;;;;;9.60;99.16;99807.13;5058437;28;45351;-65
2021/12/04 13:14:23;;;;;;;;;7.50;5.50;;;;;9.60;97.41;99806.28;5033022;28;45269;-63
2021/12/04 13:17:05;;;;;;;;;4.00;4.00;;;;;9.59;96.94;99805.44;5060666;28;46282;-63
2021/12/04 13:19:32;;;;;;;;;4.25;3.50;;;;;9.57;100.00;99814.16;5043754;28;45254;-71
2021/12/04 13:22:02;;;;;;;;;6.50;3.00;;;;;9.53;97.40;99815.19;5058148;28;45370;-68
2021/12/04 13:24:33;;;;;;;;;17.75;17.50;;;;;9.56;98.35;99815.91;5062123;28;45537;-61
2021/12/04 13:29:38;;;;;;;;;4.50;4.50;;;;;9.66;86.92;99812.09;5062192;28;45666;-64
2021/12/04 13:32:05;;;;;;;;;3.50;2.00;;;;;9.76;98.45;99822.94;5061883;28;45280;-64
2021/12/04 13:34:31;;;;;;;;;7.75;4.00;;;;;9.85;95.67;99817.41;5060984;28;45235;-62
2021/12/04 13:36:58;;;;;;;;;3.25;2.00;;;;;9.88;85.34;99827.66;5049268;28;45373;-63
2021/12/04 13:39:24;;;;;;;;;8.00;3.00;;;;;9.89;92.79;99821.56;5060619;28;45304;-63
2021/12/04 13:41:52;;;;;;;;;2.75;2.75;;;;;9.92;85.10;99828.38;5061292;28;45436;-62
2021/12/04 13:44:20;;;;;;;;;2.00;2.00;;;;;9.85;78.05;99827.78;5061077;28;45238;-63
2021/12/04 13:46:55;;;;;;;;;3.50;2.50;;;;;9.85;89.27;99826.94;5061809;28;48289;-63
2021/12/04 13:49:26;;;;;;;;;4.00;3.75;;;;;9.79;89.00;99814.19;5031237;28;45264;-62
2021/12/04 13:51:57;;;;;;;;;3.75;3.00;;;;;9.81;87.13;99815.84;5046143;28;45334;-62
2021/12/04 13:54:29;;;;;;;;;2.25;1.00;;;;;9.80;89.74;99816.72;5044738;28;45405;-62
2021/12/04 13:56:54;;;;;;;;;7.50;3.75;;;;;9.77;88.84;99815.09;5060864;28;46236;-61
2021/12/04 13:59:25;;;;;;;;;2.25;2.00;;;;;9.82;90.02;99816.69;5053619;28;45335;-62
2021/12/04 14:01:51;;;;;;;;;3.75;2.75;;;;;9.89;75.66;99806.00;5061570;28;45320;-63
2021/12/04 14:04:18;;;;;;;;;2.50;1.00;;;;;9.91;85.61;99804.19;5058517;28;45410;-61
2021/12/04 14:06:58;;;;;;;;;7.00;3.00;;;;;9.95;91.91;99800.56;5056043;28;46179;-61
2021/12/04 14:09:32;;;;;;;;;4.00;1.75;;;;;10.03;80.05;99801.09;5060780;28;45639;-62
2021/12/04 14:11:57;;;;;;;;;3.00;1.00;;;;;10.03;80.67;99802.88;5060319;28;45394;-59
2021/12/04 14:14:27;;;;;;;;;5.00;3.00;;;;;10.06;90.41;99815.72;5061079;28;45285;-62
2021/12/04 14:16:54;;;;;;;;;3.50;2.00;;;;;10.05;74.63;99811.44;5060563;28;46459;-62
2021/12/04 14:19:21;;;;;;;;;4.00;3.00;;;;;10.05;90.26;99819.22;5061214;28;45508;-63
2021/12/04 14:21:53;;;;;;;;;1.00;1.00;;;;;10.01;80.90;99823.69;5057742;28;45894;-62
2021/12/04 14:24:31;;;;;;;;;2.50;1.75;;;;;9.99;92.05;99827.22;5060993;28;45349;-62
2021/12/04 14:26:58;;;;;;;;;3.75;2.00;;;;;9.98;94.65;99828.97;5058926;28;46158;-62
2021/12/04 14:29:26;;;;;;;;;5.50;2.25;;;;;9.92;85.76;99821.44;5060942;28;45708;-63
2021/12/04 14:31:52;;;;;;;;;3.00;1.25;;;;;9.89;94.01;99849.28;5060473;28;45320;-63
2021/12/04 14:34:23;;;;;;;;;3.00;2.00;;;;;9.76;86.19;99849.72;5061218;28;45173;-63
2021/12/04 14:37:04;;;;;;;;;5.00;1.50;;;;;9.77;83.80;99856.59;5060258;28;47181;-62
2021/12/04 14:39:30;;;;;;;;;2.00;1.25;;;;;9.74;80.27;99861.06;5059725;28;46554;-62
2021/12/04 14:41:56;;;;;;;;;2.00;2.00;;;;;9.74;80.16;99872.31;5060779;28;45214;-62
2021/12/04 14:44:21;;;;;;;;;7.00;2.00;;;;;9.68;80.69;99862.16;5056894;28;45285;-59
2021/12/04 14:46:47;;;;;;;;;4.00;2.00;;;;;9.67;89.47;99870.00;5049216;28;46350;-59
2021/12/04 14:49:13;;;;;;;;;6.25;2.00;;;;;9.63;87.96;99874.47;5059820;28;45403;-60
2021/12/04 14:51:40;;;;;;;;;3.75;2.00;;;;;9.59;82.07;99883.25;5044796;28;45329;-60